East Wenatchee, WA

6:02 AM PST on February 27, 2015 (GMT -0800)
East Wenatchee North Nile | Change Station
CLOSE
Current Station
Personal Weather Station
Location: East Wenatchee, WA
Elevation: 1184 ft
Nearby Weather Stations

Elev 1184 ft 47.41 °N, 120.24 °W | Updated 13 seconds ago

Light Rain
Light Rain
39.2 °F
Feels Like 39 °F
N
0.0
Wind Variable Wind from WNW
Gusts 0.0 mph

Today
High -- | Low -- °F
--% Chance of Precip.
Yesterday
High -- | Low -- °F
Precip. -- in
6:45 AM 5:42 PM
Waxing Gibbous, 69% visible
Pressure 29.83 in
Visibility 9.0 miles
Clouds Mostly Cloudy 2000 ft
Overcast 2800 ft
Windchill 39 °F
Dew Point 39 °F
Humidity 99%
Rainfall 0.13 in
Snow Depth Not available.
UV 0.0 out of 12
Pollen 4.90 out of 12
Air Quality Not available.
Flu Activity Not available.
METAR KEAT 271255Z AUTO 36004KT 9SM -RA BKN020 OVC028 05/03 A2981 RMK AO2 SLP100 P0003 T00500028

More Conditions Fewer Conditions

Pressure 29.83 in
Visibility 9.0 miles
Clouds Mostly Cloudy 2000 ft
Overcast 2800 ft
Windchill 39 °F
Dew Point 39 °F
Humidity 99%
Rainfall 0.13 in
Snow Depth Not available.
UV 0.0 out of 12
Pollen 4.90 out of 12
Air Quality Not available.
Flu Activity Not available.
METAR KEAT 271255Z AUTO 36004KT 9SM -RA BKN020 OVC028 05/03 A2981 RMK AO2 SLP100 P0003 T00500028

More Conditions Fewer Conditions

10-Day Weather Forecast

Almanac

Astronomy

Feb. 27, 2015 Rise Set
Actual Time
Civil Twilight
Nautical Twilight
Astronomical Twilight
Moon
Length of Visible Light
Length of Day
Tomorrow will be .
, % of the Moon is Illuminated

Today's Extremes

State Highs State Lows

Community

WunderPhotos

Upload Photos

1,800,678 photos uploaded!

WunderBlogs® & News

Nearby

Air Quality

  Air Quality AQ Index Pollutant
Not available.

Snow Depth

Station Depth Elevation

Earthquake Activity

City Distance Mag. Time & Date
Minimum magnitude displayed is 2.5.

Coastal Water Temperatures

Place Temperature

Nearby Weather Stations